sensor_id;sensor_type;location;lat;lon;timestamp;P1;durP1;ratioP1;P2;durP2;ratioP2
4748;SDS011;2388;53.582;9.962;2022-12-07T00:01:28;12.02;;;9.05;;
4748;SDS011;2388;53.582;9.962;2022-12-07T00:03:55;11.00;;;8.60;;
4748;SDS011;2388;53.582;9.962;2022-12-07T00:06:25;10.90;;;9.02;;
4748;SDS011;2388;53.582;9.962;2022-12-07T00:08:51;11.77;;;9.43;;
4748;SDS011;2388;53.582;9.962;2022-12-07T00:11:18;11.20;;;8.77;;
4748;SDS011;2388;53.582;9.962;2022-12-07T00:13:46;12.55;;;8.32;;
4748;SDS011;2388;53.582;9.962;2022-12-07T00:16:14;9.45;;;8.38;;
4748;SDS011;2388;53.582;9.962;2022-12-07T00:18:41;13.07;;;9.52;;
4748;SDS011;2388;53.582;9.962;2022-12-07T00:21:14;11.75;;;8.80;;
4748;SDS011;2388;53.582;9.962;2022-12-07T00:23:42;12.32;;;9.25;;
4748;SDS011;2388;53.582;9.962;2022-12-07T00:28:44;9.45;;;8.00;;
4748;SDS011;2388;53.582;9.962;2022-12-07T00:31:11;13.60;;;9.27;;
4748;SDS011;2388;53.582;9.962;2022-12-07T00:33:38;9.98;;;8.23;;
4748;SDS011;2388;53.582;9.962;2022-12-07T00:36:08;11.47;;;7.70;;
4748;SDS011;2388;53.582;9.962;2022-12-07T00:38:37;11.85;;;8.48;;
4748;SDS011;2388;53.582;9.962;2022-12-07T00:41:04;15.50;;;9.13;;
4748;SDS011;2388;53.582;9.962;2022-12-07T00:43:42;11.68;;;8.30;;
4748;SDS011;2388;53.582;9.962;2022-12-07T00:46:09;14.93;;;8.80;;
4748;SDS011;2388;53.582;9.962;2022-12-07T00:48:35;11.23;;;8.38;;
4748;SDS011;2388;53.582;9.962;2022-12-07T00:51:00;14.23;;;8.67;;
4748;SDS011;2388;53.582;9.962;2022-12-07T00:53:26;9.73;;;8.15;;
4748;SDS011;2388;53.582;9.962;2022-12-07T00:55:53;11.50;;;7.88;;
4748;SDS011;2388;53.582;9.962;2022-12-07T00:58:18;9.90;;;7.87;;
4748;SDS011;2388;53.582;9.962;2022-12-07T01:00:44;12.18;;;7.82;;
4748;SDS011;2388;53.582;9.962;2022-12-07T01:03:11;9.33;;;7.67;;
4748;SDS011;2388;53.582;9.962;2022-12-07T01:05:38;9.63;;;7.68;;
4748;SDS011;2388;53.582;9.962;2022-12-07T01:08:04;11.13;;;7.83;;
4748;SDS011;2388;53.582;9.962;2022-12-07T01:10:30;10.20;;;8.30;;
4748;SDS011;2388;53.582;9.962;2022-12-07T01:12:56;8.55;;;6.47;;
4748;SDS011;2388;53.582;9.962;2022-12-07T01:15:22;10.70;;;7.35;;
4748;SDS011;2388;53.582;9.962;2022-12-07T01:17:51;9.37;;;7.00;;
4748;SDS011;2388;53.582;9.962;2022-12-07T01:20:22;10.95;;;7.15;;
4748;SDS011;2388;53.582;9.962;2022-12-07T01:22:48;10.57;;;7.37;;
4748;SDS011;2388;53.582;9.962;2022-12-07T01:25:13;9.40;;;7.30;;
4748;SDS011;2388;53.582;9.962;2022-12-07T01:27:39;8.83;;;7.20;;
4748;SDS011;2388;53.582;9.962;2022-12-07T01:30:05;10.90;;;7.60;;
4748;SDS011;2388;53.582;9.962;2022-12-07T01:32:32;9.70;;;7.35;;
4748;SDS011;2388;53.582;9.962;2022-12-07T01:34:58;11.88;;;7.65;;
4748;SDS011;2388;53.582;9.962;2022-12-07T01:37:23;8.87;;;7.10;;
4748;SDS011;2388;53.582;9.962;2022-12-07T01:39:49;9.87;;;6.87;;
4748;SDS011;2388;53.582;9.962;2022-12-07T01:42:15;8.10;;;7.05;;
4748;SDS011;2388;53.582;9.962;2022-12-07T01:45:16;9.73;;;7.07;;
4748;SDS011;2388;53.582;9.962;2022-12-07T01:47:52;11.80;;;7.47;;
4748;SDS011;2388;53.582;9.962;2022-12-07T01:50:20;11.43;;;7.72;;
4748;SDS011;2388;53.582;9.962;2022-12-07T01:52:49;8.55;;;7.43;;
4748;SDS011;2388;53.582;9.962;2022-12-07T01:55:18;9.02;;;7.05;;
4748;SDS011;2388;53.582;9.962;2022-12-07T01:57:46;9.50;;;6.22;;
4748;SDS011;2388;53.582;9.962;2022-12-07T02:00:14;8.13;;;6.68;;
4748;SDS011;2388;53.582;9.962;2022-12-07T02:02:45;8.52;;;6.20;;
4748;SDS011;2388;53.582;9.962;2022-12-07T02:05:16;7.07;;;5.90;;
4748;SDS011;2388;53.582;9.962;2022-12-07T02:07:42;7.88;;;5.45;;
4748;SDS011;2388;53.582;9.962;2022-12-07T02:10:29;6.90;;;5.07;;
4748;SDS011;2388;53.582;9.962;2022-12-07T02:21:26;9.35;;;4.95;;
4748;SDS011;2388;53.582;9.962;2022-12-07T02:24:09;7.90;;;4.93;;
4748;SDS011;2388;53.582;9.962;2022-12-07T02:32:44;4.50;;;3.40;;
4748;SDS011;2388;53.582;9.962;2022-12-07T02:35:17;3.30;;;3.00;;
4748;SDS011;2388;53.582;9.962;2022-12-07T02:43:17;5.45;;;3.05;;
4748;SDS011;2388;53.582;9.962;2022-12-07T02:45:48;4.53;;;2.65;;
4748;SDS011;2388;53.582;9.962;2022-12-07T02:48:16;3.10;;;2.60;;
4748;SDS011;2388;53.582;9.962;2022-12-07T02:50:50;3.92;;;2.97;;
4748;SDS011;2388;53.582;9.962;2022-12-07T02:53:35;2.70;;;2.50;;
4748;SDS011;2388;53.582;9.962;2022-12-07T02:56:04;2.77;;;2.23;;
4748;SDS011;2388;53.582;9.962;2022-12-07T03:03:46;2.05;;;1.50;;
4748;SDS011;2388;53.582;9.962;2022-12-07T03:06:22;4.30;;;1.70;;
4748;SDS011;2388;53.582;9.962;2022-12-07T03:08:58;2.40;;;1.70;;
4748;SDS011;2388;53.582;9.962;2022-12-07T03:11:45;1.77;;;1.67;;
4748;SDS011;2388;53.582;9.962;2022-12-07T03:14:24;4.97;;;1.98;;
4748;SDS011;2388;53.582;9.962;2022-12-07T03:16:57;2.35;;;1.88;;
4748;SDS011;2388;53.582;9.962;2022-12-07T03:19:32;2.08;;;1.23;;
4748;SDS011;2388;53.582;9.962;2022-12-07T03:22:00;4.55;;;1.25;;
4748;SDS011;2388;53.582;9.962;2022-12-07T03:24:37;2.50;;;1.37;;
4748;SDS011;2388;53.582;9.962;2022-12-07T03:27:09;3.42;;;1.10;;
4748;SDS011;2388;53.582;9.962;2022-12-07T03:29:46;1.92;;;1.30;;
4748;SDS011;2388;53.582;9.962;2022-12-07T03:35:17;2.28;;;0.77;;
4748;SDS011;2388;53.582;9.962;2022-12-07T03:37:50;1.70;;;0.80;;
4748;SDS011;2388;53.582;9.962;2022-12-07T03:40:35;3.47;;;0.70;;
4748;SDS011;2388;53.582;9.962;2022-12-07T03:43:05;9.07;;;0.68;;
4748;SDS011;2388;53.582;9.962;2022-12-07T03:45:34;2.25;;;0.88;;
4748;SDS011;2388;53.582;9.962;2022-12-07T03:48:09;3.00;;;0.90;;
4748;SDS011;2388;53.582;9.962;2022-12-07T03:53:33;2.00;;;1.03;;
4748;SDS011;2388;53.582;9.962;2022-12-07T03:56:02;1.15;;;0.70;;
4748;SDS011;2388;53.582;9.962;2022-12-07T03:58:28;0.98;;;0.70;;
4748;SDS011;2388;53.582;9.962;2022-12-07T04:00:56;1.80;;;0.90;;
4748;SDS011;2388;53.582;9.962;2022-12-07T04:03:21;2.00;;;0.73;;
4748;SDS011;2388;53.582;9.962;2022-12-07T04:05:47;1.00;;;0.70;;
4748;SDS011;2388;53.582;9.962;2022-12-07T04:08:12;0.97;;;0.87;;
4748;SDS011;2388;53.582;9.962;2022-12-07T04:10:38;1.90;;;1.13;;
4748;SDS011;2388;53.582;9.962;2022-12-07T04:13:04;0.67;;;0.53;;
4748;SDS011;2388;53.582;9.962;2022-12-07T04:15:29;1.93;;;0.87;;
4748;SDS011;2388;53.582;9.962;2022-12-07T04:17:55;1.53;;;0.80;;
4748;SDS011;2388;53.582;9.962;2022-12-07T04:20:20;3.90;;;1.07;;
4748;SDS011;2388;53.582;9.962;2022-12-07T04:22:46;1.00;;;0.73;;
4748;SDS011;2388;53.582;9.962;2022-12-07T04:25:12;1.27;;;0.90;;
4748;SDS011;2388;53.582;9.962;2022-12-07T04:27:37;2.30;;;0.70;;
4748;SDS011;2388;53.582;9.962;2022-12-07T04:30:03;1.40;;;0.90;;
4748;SDS011;2388;53.582;9.962;2022-12-07T04:32:29;2.75;;;0.65;;
4748;SDS011;2388;53.582;9.962;2022-12-07T04:34:55;0.87;;;0.73;;
4748;SDS011;2388;53.582;9.962;2022-12-07T04:37:21;4.50;;;0.97;;
4748;SDS011;2388;53.582;9.962;2022-12-07T04:39:47;3.33;;;0.90;;
4748;SDS011;2388;53.582;9.962;2022-12-07T04:42:12;2.70;;;0.80;;
4748;SDS011;2388;53.582;9.962;2022-12-07T04:44:38;5.03;;;0.90;;
4748;SDS011;2388;53.582;9.962;2022-12-07T04:47:04;3.30;;;1.20;;
4748;SDS011;2388;53.582;9.962;2022-12-07T04:49:30;1.50;;;0.90;;
4748;SDS011;2388;53.582;9.962;2022-12-07T04:51:55;0.90;;;0.90;;
4748;SDS011;2388;53.582;9.962;2022-12-07T04:54:20;1.53;;;0.73;;
4748;SDS011;2388;53.582;9.962;2022-12-07T04:56:46;3.43;;;1.47;;
4748;SDS011;2388;53.582;9.962;2022-12-07T04:59:12;1.57;;;1.20;;
4748;SDS011;2388;53.582;9.962;2022-12-07T05:01:39;1.98;;;1.10;;
4748;SDS011;2388;53.582;9.962;2022-12-07T05:04:04;1.23;;;1.13;;
4748;SDS011;2388;53.582;9.962;2022-12-07T05:06:30;1.37;;;1.00;;
4748;SDS011;2388;53.582;9.962;2022-12-07T05:08:56;1.40;;;0.97;;
4748;SDS011;2388;53.582;9.962;2022-12-07T05:11:21;1.40;;;1.10;;
4748;SDS011;2388;53.582;9.962;2022-12-07T05:16:42;3.10;;;1.25;;
4748;SDS011;2388;53.582;9.962;2022-12-07T05:19:08;5.97;;;1.30;;
4748;SDS011;2388;53.582;9.962;2022-12-07T05:21:34;4.77;;;1.30;;
4748;SDS011;2388;53.582;9.962;2022-12-07T05:24:00;1.42;;;0.93;;
4748;SDS011;2388;53.582;9.962;2022-12-07T05:26:26;1.63;;;1.27;;
4748;SDS011;2388;53.582;9.962;2022-12-07T05:28:53;2.10;;;1.20;;
4748;SDS011;2388;53.582;9.962;2022-12-07T05:31:20;1.37;;;1.20;;
4748;SDS011;2388;53.582;9.962;2022-12-07T05:33:46;1.67;;;1.30;;
4748;SDS011;2388;53.582;9.962;2022-12-07T05:36:12;2.33;;;1.20;;
4748;SDS011;2388;53.582;9.962;2022-12-07T05:38:37;1.63;;;1.43;;
4748;SDS011;2388;53.582;9.962;2022-12-07T05:41:03;1.50;;;1.20;;
4748;SDS011;2388;53.582;9.962;2022-12-07T05:43:30;3.03;;;1.33;;
4748;SDS011;2388;53.582;9.962;2022-12-07T05:45:56;2.23;;;1.40;;
4748;SDS011;2388;53.582;9.962;2022-12-07T05:48:22;1.30;;;1.20;;
4748;SDS011;2388;53.582;9.962;2022-12-07T05:50:48;4.63;;;1.17;;
4748;SDS011;2388;53.582;9.962;2022-12-07T05:53:14;6.50;;;4.57;;
4748;SDS011;2388;53.582;9.962;2022-12-07T05:55:40;3.00;;;2.47;;
4748;SDS011;2388;53.582;9.962;2022-12-07T05:58:05;2.00;;;1.47;;
4748;SDS011;2388;53.582;9.962;2022-12-07T06:00:49;3.23;;;1.67;;
4748;SDS011;2388;53.582;9.962;2022-12-07T06:03:15;2.27;;;1.00;;
4748;SDS011;2388;53.582;9.962;2022-12-07T06:05:40;2.67;;;1.13;;
4748;SDS011;2388;53.582;9.962;2022-12-07T06:08:06;2.43;;;1.30;;
4748;SDS011;2388;53.582;9.962;2022-12-07T06:10:32;2.60;;;1.20;;
4748;SDS011;2388;53.582;9.962;2022-12-07T06:12:57;2.07;;;1.67;;
4748;SDS011;2388;53.582;9.962;2022-12-07T06:15:23;1.67;;;1.00;;
4748;SDS011;2388;53.582;9.962;2022-12-07T06:17:48;1.50;;;1.37;;
4748;SDS011;2388;53.582;9.962;2022-12-07T06:20:14;1.70;;;1.60;;
4748;SDS011;2388;53.582;9.962;2022-12-07T06:22:39;2.07;;;1.30;;
4748;SDS011;2388;53.582;9.962;2022-12-07T06:25:05;3.13;;;1.23;;
4748;SDS011;2388;53.582;9.962;2022-12-07T06:27:32;3.83;;;1.38;;
4748;SDS011;2388;53.582;9.962;2022-12-07T06:29:58;3.30;;;1.70;;
4748;SDS011;2388;53.582;9.962;2022-12-07T06:32:23;1.60;;;1.50;;
4748;SDS011;2388;53.582;9.962;2022-12-07T06:34:49;3.37;;;1.10;;
4748;SDS011;2388;53.582;9.962;2022-12-07T06:37:14;2.40;;;1.53;;
4748;SDS011;2388;53.582;9.962;2022-12-07T06:39:40;3.10;;;1.83;;
4748;SDS011;2388;53.582;9.962;2022-12-07T06:42:05;11.57;;;7.10;;
4748;SDS011;2388;53.582;9.962;2022-12-07T06:44:31;4.43;;;1.83;;
4748;SDS011;2388;53.582;9.962;2022-12-07T06:46:57;2.90;;;1.20;;
4748;SDS011;2388;53.582;9.962;2022-12-07T06:49:22;13.40;;;7.27;;
4748;SDS011;2388;53.582;9.962;2022-12-07T06:51:48;4.30;;;3.40;;
4748;SDS011;2388;53.582;9.962;2022-12-07T06:54:14;1.47;;;1.00;;
4748;SDS011;2388;53.582;9.962;2022-12-07T06:56:40;2.60;;;1.50;;
4748;SDS011;2388;53.582;9.962;2022-12-07T06:59:06;28.50;;;16.90;;
4748;SDS011;2388;53.582;9.962;2022-12-07T07:01:33;2.05;;;1.02;;
4748;SDS011;2388;53.582;9.962;2022-12-07T07:03:59;2.65;;;1.40;;
4748;SDS011;2388;53.582;9.962;2022-12-07T07:06:25;2.55;;;0.95;;
4748;SDS011;2388;53.582;9.962;2022-12-07T07:08:51;3.60;;;1.40;;
4748;SDS011;2388;53.582;9.962;2022-12-07T07:11:17;17.03;;;9.57;;
4748;SDS011;2388;53.582;9.962;2022-12-07T07:13:42;5.63;;;1.50;;
4748;SDS011;2388;53.582;9.962;2022-12-07T07:16:09;3.05;;;1.05;;
4748;SDS011;2388;53.582;9.962;2022-12-07T07:18:35;2.67;;;1.00;;
4748;SDS011;2388;53.582;9.962;2022-12-07T07:21:01;2.17;;;1.03;;
4748;SDS011;2388;53.582;9.962;2022-12-07T07:23:26;1.70;;;0.87;;
4748;SDS011;2388;53.582;9.962;2022-12-07T07:25:52;1.00;;;0.90;;
4748;SDS011;2388;53.582;9.962;2022-12-07T07:28:17;6.87;;;1.57;;
4748;SDS011;2388;53.582;9.962;2022-12-07T07:30:43;4.73;;;1.10;;
4748;SDS011;2388;53.582;9.962;2022-12-07T07:33:09;1.47;;;1.13;;
4748;SDS011;2388;53.582;9.962;2022-12-07T07:35:35;4.07;;;1.10;;
4748;SDS011;2388;53.582;9.962;2022-12-07T07:38:01;4.03;;;3.00;;
4748;SDS011;2388;53.582;9.962;2022-12-07T07:40:27;1.80;;;1.20;;
4748;SDS011;2388;53.582;9.962;2022-12-07T07:42:56;1.27;;;0.73;;
4748;SDS011;2388;53.582;9.962;2022-12-07T07:45:22;2.70;;;0.93;;
4748;SDS011;2388;53.582;9.962;2022-12-07T07:47:49;3.53;;;0.80;;
4748;SDS011;2388;53.582;9.962;2022-12-07T07:50:15;1.77;;;0.82;;
4748;SDS011;2388;53.582;9.962;2022-12-07T07:52:42;0.93;;;0.60;;
4748;SDS011;2388;53.582;9.962;2022-12-07T07:55:08;2.65;;;1.25;;
4748;SDS011;2388;53.582;9.962;2022-12-07T07:57:34;1.70;;;0.63;;
4748;SDS011;2388;53.582;9.962;2022-12-07T08:00:00;2.70;;;0.63;;
4748;SDS011;2388;53.582;9.962;2022-12-07T08:02:28;1.35;;;0.50;;
4748;SDS011;2388;53.582;9.962;2022-12-07T08:04:54;1.97;;;0.60;;
4748;SDS011;2388;53.582;9.962;2022-12-07T08:07:20;5.73;;;0.80;;
4748;SDS011;2388;53.582;9.962;2022-12-07T08:09:45;8.90;;;1.00;;
4748;SDS011;2388;53.582;9.962;2022-12-07T08:12:11;2.03;;;0.97;;
4748;SDS011;2388;53.582;9.962;2022-12-07T08:14:37;1.40;;;0.70;;
4748;SDS011;2388;53.582;9.962;2022-12-07T08:17:02;3.10;;;0.50;;
4748;SDS011;2388;53.582;9.962;2022-12-07T08:19:28;5.50;;;2.00;;
4748;SDS011;2388;53.582;9.962;2022-12-07T08:21:53;2.57;;;0.87;;
4748;SDS011;2388;53.582;9.962;2022-12-07T08:24:20;3.70;;;0.68;;
4748;SDS011;2388;53.582;9.962;2022-12-07T08:26:46;6.67;;;1.00;;
4748;SDS011;2388;53.582;9.962;2022-12-07T08:29:12;1.90;;;0.50;;
4748;SDS011;2388;53.582;9.962;2022-12-07T08:31:37;4.00;;;1.07;;
4748;SDS011;2388;53.582;9.962;2022-12-07T08:34:03;6.27;;;0.70;;
4748;SDS011;2388;53.582;9.962;2022-12-07T08:36:28;8.40;;;1.00;;
4748;SDS011;2388;53.582;9.962;2022-12-07T08:38:54;2.60;;;0.63;;
4748;SDS011;2388;53.582;9.962;2022-12-07T08:41:19;2.70;;;1.00;;
4748;SDS011;2388;53.582;9.962;2022-12-07T08:43:45;1.77;;;0.60;;
4748;SDS011;2388;53.582;9.962;2022-12-07T08:49:13;1.73;;;0.70;;
4748;SDS011;2388;53.582;9.962;2022-12-07T08:51:43;2.20;;;0.87;;
4748;SDS011;2388;53.582;9.962;2022-12-07T08:54:10;3.43;;;1.37;;
4748;SDS011;2388;53.582;9.962;2022-12-07T08:56:39;1.98;;;1.10;;
4748;SDS011;2388;53.582;9.962;2022-12-07T08:59:05;2.43;;;0.80;;
4748;SDS011;2388;53.582;9.962;2022-12-07T09:01:31;3.90;;;0.80;;
4748;SDS011;2388;53.582;9.962;2022-12-07T09:03:57;2.80;;;0.50;;
4748;SDS011;2388;53.582;9.962;2022-12-07T09:06:23;3.00;;;1.00;;
4748;SDS011;2388;53.582;9.962;2022-12-07T09:08:49;4.30;;;0.60;;
4748;SDS011;2388;53.582;9.962;2022-12-07T09:11:19;4.77;;;0.90;;
4748;SDS011;2388;53.582;9.962;2022-12-07T09:13:44;1.20;;;0.70;;
4748;SDS011;2388;53.582;9.962;2022-12-07T09:16:10;2.10;;;0.90;;
4748;SDS011;2388;53.582;9.962;2022-12-07T09:18:35;2.23;;;0.70;;
4748;SDS011;2388;53.582;9.962;2022-12-07T09:21:01;6.63;;;1.00;;
4748;SDS011;2388;53.582;9.962;2022-12-07T09:23:26;2.50;;;1.07;;
4748;SDS011;2388;53.582;9.962;2022-12-07T09:25:52;2.50;;;0.60;;
4748;SDS011;2388;53.582;9.962;2022-12-07T09:28:17;4.13;;;0.80;;
4748;SDS011;2388;53.582;9.962;2022-12-07T09:30:46;4.40;;;1.00;;
4748;SDS011;2388;53.582;9.962;2022-12-07T09:33:12;1.60;;;0.70;;
4748;SDS011;2388;53.582;9.962;2022-12-07T09:35:38;4.73;;;0.73;;
4748;SDS011;2388;53.582;9.962;2022-12-07T09:38:09;2.00;;;0.82;;
4748;SDS011;2388;53.582;9.962;2022-12-07T09:40:35;4.17;;;1.03;;
4748;SDS011;2388;53.582;9.962;2022-12-07T09:43:00;6.67;;;1.00;;
4748;SDS011;2388;53.582;9.962;2022-12-07T09:45:27;5.13;;;1.20;;
4748;SDS011;2388;53.582;9.962;2022-12-07T09:47:58;3.33;;;1.23;;
4748;SDS011;2388;53.582;9.962;2022-12-07T09:50:26;1.87;;;0.73;;
4748;SDS011;2388;53.582;9.962;2022-12-07T09:52:52;4.07;;;1.13;;
4748;SDS011;2388;53.582;9.962;2022-12-07T09:55:33;1.97;;;0.80;;
4748;SDS011;2388;53.582;9.962;2022-12-07T09:58:00;3.50;;;0.90;;
4748;SDS011;2388;53.582;9.962;2022-12-07T10:00:26;6.53;;;1.00;;
4748;SDS011;2388;53.582;9.962;2022-12-07T10:05:27;2.90;;;1.00;;
4748;SDS011;2388;53.582;9.962;2022-12-07T10:08:04;5.47;;;1.17;;
4748;SDS011;2388;53.582;9.962;2022-12-07T10:10:31;7.30;;;0.90;;
4748;SDS011;2388;53.582;9.962;2022-12-07T10:12:59;1.50;;;0.80;;
4748;SDS011;2388;53.582;9.962;2022-12-07T10:15:46;2.77;;;0.70;;
4748;SDS011;2388;53.582;9.962;2022-12-07T10:21:00;2.33;;;1.27;;
4748;SDS011;2388;53.582;9.962;2022-12-07T10:23:29;1.67;;;0.93;;
4748;SDS011;2388;53.582;9.962;2022-12-07T10:25:54;3.97;;;0.70;;
4748;SDS011;2388;53.582;9.962;2022-12-07T10:28:20;6.03;;;0.60;;
4748;SDS011;2388;53.582;9.962;2022-12-07T10:33:27;3.10;;;1.13;;
4748;SDS011;2388;53.582;9.962;2022-12-07T10:36:01;3.53;;;0.90;;
4748;SDS011;2388;53.582;9.962;2022-12-07T10:38:47;1.97;;;1.10;;
4748;SDS011;2388;53.582;9.962;2022-12-07T10:41:33;1.13;;;0.60;;
4748;SDS011;2388;53.582;9.962;2022-12-07T10:43:59;2.57;;;0.80;;
4748;SDS011;2388;53.582;9.962;2022-12-07T10:49:02;2.10;;;0.70;;
4748;SDS011;2388;53.582;9.962;2022-12-07T10:51:55;3.00;;;0.90;;
4748;SDS011;2388;53.582;9.962;2022-12-07T11:00:12;6.20;;;0.80;;
4748;SDS011;2388;53.582;9.962;2022-12-07T11:02:50;6.20;;;0.87;;
4748;SDS011;2388;53.582;9.962;2022-12-07T11:06:12;3.00;;;0.90;;
4748;SDS011;2388;53.582;9.962;2022-12-07T11:10:54;2.00;;;0.87;;
4748;SDS011;2388;53.582;9.962;2022-12-07T11:16:22;4.23;;;0.60;;
4748;SDS011;2388;53.582;9.962;2022-12-07T11:22:13;3.40;;;0.77;;
4748;SDS011;2388;53.582;9.962;2022-12-07T11:27:46;4.20;;;0.83;;
4748;SDS011;2388;53.582;9.962;2022-12-07T11:30:48;1.10;;;0.87;;
4748;SDS011;2388;53.582;9.962;2022-12-07T11:33:33;2.70;;;0.90;;
4748;SDS011;2388;53.582;9.962;2022-12-07T11:36:17;7.77;;;0.60;;
4748;SDS011;2388;53.582;9.962;2022-12-07T11:39:00;1.53;;;0.50;;
4748;SDS011;2388;53.582;9.962;2022-12-07T11:41:40;2.63;;;1.00;;
4748;SDS011;2388;53.582;9.962;2022-12-07T11:46:50;8.13;;;0.77;;
4748;SDS011;2388;53.582;9.962;2022-12-07T11:49:26;6.33;;;0.83;;
4748;SDS011;2388;53.582;9.962;2022-12-07T11:52:06;3.03;;;0.60;;
4748;SDS011;2388;53.582;9.962;2022-12-07T11:54:42;4.00;;;0.70;;
4748;SDS011;2388;53.582;9.962;2022-12-07T11:57:16;3.60;;;0.80;;
4748;SDS011;2388;53.582;9.962;2022-12-07T12:00:03;1.10;;;0.60;;
4748;SDS011;2388;53.582;9.962;2022-12-07T12:02:32;2.80;;;0.70;;
4748;SDS011;2388;53.582;9.962;2022-12-07T12:05:23;3.23;;;0.50;;
4748;SDS011;2388;53.582;9.962;2022-12-07T12:07:59;1.67;;;0.70;;
4748;SDS011;2388;53.582;9.962;2022-12-07T12:10:49;4.37;;;0.97;;
4748;SDS011;2388;53.582;9.962;2022-12-07T12:13:27;3.23;;;0.57;;
4748;SDS011;2388;53.582;9.962;2022-12-07T12:19:27;12.30;;;0.80;;
4748;SDS011;2388;53.582;9.962;2022-12-07T12:22:11;3.03;;;0.83;;
4748;SDS011;2388;53.582;9.962;2022-12-07T12:24:43;4.03;;;1.00;;
4748;SDS011;2388;53.582;9.962;2022-12-07T12:27:22;4.47;;;0.90;;
4748;SDS011;2388;53.582;9.962;2022-12-07T12:29:55;6.57;;;1.10;;
4748;SDS011;2388;53.582;9.962;2022-12-07T12:32:32;4.70;;;0.97;;
4748;SDS011;2388;53.582;9.962;2022-12-07T12:38:20;4.50;;;1.10;;
4748;SDS011;2388;53.582;9.962;2022-12-07T12:40:53;2.57;;;0.70;;
4748;SDS011;2388;53.582;9.962;2022-12-07T12:49:30;5.40;;;2.10;;
4748;SDS011;2388;53.582;9.962;2022-12-07T12:54:56;2.20;;;0.80;;
4748;SDS011;2388;53.582;9.962;2022-12-07T12:57:27;6.90;;;1.10;;
4748;SDS011;2388;53.582;9.962;2022-12-07T13:15:41;7.27;;;0.87;;
4748;SDS011;2388;53.582;9.962;2022-12-07T13:21:47;3.20;;;1.00;;
4748;SDS011;2388;53.582;9.962;2022-12-07T13:23:59;3.90;;;0.80;;
4748;SDS011;2388;53.582;9.962;2022-12-07T13:32:01;4.93;;;0.73;;
4748;SDS011;2388;53.582;9.962;2022-12-07T13:37:09;5.67;;;1.10;;
4748;SDS011;2388;53.582;9.962;2022-12-07T13:39:59;3.43;;;1.10;;
4748;SDS011;2388;53.582;9.962;2022-12-07T13:42:31;1.03;;;0.87;;
4748;SDS011;2388;53.582;9.962;2022-12-07T13:44:58;2.50;;;0.70;;
4748;SDS011;2388;53.582;9.962;2022-12-07T13:49:55;3.33;;;1.07;;
4748;SDS011;2388;53.582;9.962;2022-12-07T13:55:00;4.03;;;0.90;;
4748;SDS011;2388;53.582;9.962;2022-12-07T13:57:38;4.80;;;0.90;;
4748;SDS011;2388;53.582;9.962;2022-12-07T14:00:06;1.17;;;0.57;;
4748;SDS011;2388;53.582;9.962;2022-12-07T14:02:54;2.47;;;0.60;;
4748;SDS011;2388;53.582;9.962;2022-12-07T14:05:28;2.80;;;0.60;;
4748;SDS011;2388;53.582;9.962;2022-12-07T14:07:59;4.13;;;1.10;;
4748;SDS011;2388;53.582;9.962;2022-12-07T14:15:52;2.60;;;1.50;;
4748;SDS011;2388;53.582;9.962;2022-12-07T14:18:25;2.20;;;0.47;;
4748;SDS011;2388;53.582;9.962;2022-12-07T14:21:03;2.50;;;1.07;;
4748;SDS011;2388;53.582;9.962;2022-12-07T14:23:35;5.37;;;1.10;;
4748;SDS011;2388;53.582;9.962;2022-12-07T14:26:06;0.70;;;0.60;;
4748;SDS011;2388;53.582;9.962;2022-12-07T14:28:36;4.00;;;0.70;;
4748;SDS011;2388;53.582;9.962;2022-12-07T14:31:02;10.23;;;1.10;;
4748;SDS011;2388;53.582;9.962;2022-12-07T14:33:28;2.03;;;0.70;;
4748;SDS011;2388;53.582;9.962;2022-12-07T14:35:54;2.03;;;0.77;;
4748;SDS011;2388;53.582;9.962;2022-12-07T14:38:22;3.50;;;0.77;;
4748;SDS011;2388;53.582;9.962;2022-12-07T14:40:49;1.47;;;1.10;;
4748;SDS011;2388;53.582;9.962;2022-12-07T14:43:16;4.00;;;0.70;;
4748;SDS011;2388;53.582;9.962;2022-12-07T14:45:43;2.73;;;0.87;;
4748;SDS011;2388;53.582;9.962;2022-12-07T14:48:12;1.87;;;0.87;;
4748;SDS011;2388;53.582;9.962;2022-12-07T14:50:47;2.40;;;1.20;;
4748;SDS011;2388;53.582;9.962;2022-12-07T14:53:16;5.57;;;1.87;;
4748;SDS011;2388;53.582;9.962;2022-12-07T14:55:43;1.00;;;0.80;;
4748;SDS011;2388;53.582;9.962;2022-12-07T14:58:13;3.23;;;1.03;;
4748;SDS011;2388;53.582;9.962;2022-12-07T15:00:40;6.13;;;2.70;;
4748;SDS011;2388;53.582;9.962;2022-12-07T15:03:06;14.20;;;7.47;;
4748;SDS011;2388;53.582;9.962;2022-12-07T15:05:31;9.17;;;5.80;;
4748;SDS011;2388;53.582;9.962;2022-12-07T15:07:57;1.53;;;0.90;;
4748;SDS011;2388;53.582;9.962;2022-12-07T15:10:27;3.50;;;1.27;;
4748;SDS011;2388;53.582;9.962;2022-12-07T15:12:56;3.27;;;0.97;;
4748;SDS011;2388;53.582;9.962;2022-12-07T15:15:46;2.50;;;1.10;;
4748;SDS011;2388;53.582;9.962;2022-12-07T15:18:12;2.83;;;0.90;;
4748;SDS011;2388;53.582;9.962;2022-12-07T15:20:38;3.50;;;1.37;;
4748;SDS011;2388;53.582;9.962;2022-12-07T15:23:03;6.87;;;2.10;;
4748;SDS011;2388;53.582;9.962;2022-12-07T15:25:29;4.07;;;1.57;;
4748;SDS011;2388;53.582;9.962;2022-12-07T15:27:54;1.60;;;1.47;;
4748;SDS011;2388;53.582;9.962;2022-12-07T15:30:20;1.17;;;0.80;;
4748;SDS011;2388;53.582;9.962;2022-12-07T15:32:49;6.73;;;1.33;;
4748;SDS011;2388;53.582;9.962;2022-12-07T15:35:15;1.20;;;1.03;;
4748;SDS011;2388;53.582;9.962;2022-12-07T15:37:41;3.87;;;0.90;;
4748;SDS011;2388;53.582;9.962;2022-12-07T15:40:06;2.70;;;1.23;;
4748;SDS011;2388;53.582;9.962;2022-12-07T15:42:32;1.77;;;0.90;;
4748;SDS011;2388;53.582;9.962;2022-12-07T15:44:58;3.63;;;1.20;;
4748;SDS011;2388;53.582;9.962;2022-12-07T15:47:30;1.13;;;0.77;;
4748;SDS011;2388;53.582;9.962;2022-12-07T15:49:56;1.23;;;1.10;;
4748;SDS011;2388;53.582;9.962;2022-12-07T15:52:22;2.80;;;1.10;;
4748;SDS011;2388;53.582;9.962;2022-12-07T15:54:47;1.50;;;0.70;;
4748;SDS011;2388;53.582;9.962;2022-12-07T15:57:13;2.03;;;1.00;;
4748;SDS011;2388;53.582;9.962;2022-12-07T15:59:38;3.07;;;1.20;;
4748;SDS011;2388;53.582;9.962;2022-12-07T16:02:04;1.63;;;0.90;;
4748;SDS011;2388;53.582;9.962;2022-12-07T16:04:30;3.70;;;1.13;;
4748;SDS011;2388;53.582;9.962;2022-12-07T16:06:55;5.23;;;1.00;;
4748;SDS011;2388;53.582;9.962;2022-12-07T16:09:21;7.37;;;1.43;;
4748;SDS011;2388;53.582;9.962;2022-12-07T16:11:47;2.50;;;1.30;;
4748;SDS011;2388;53.582;9.962;2022-12-07T16:14:15;3.47;;;1.33;;
4748;SDS011;2388;53.582;9.962;2022-12-07T16:16:40;2.50;;;1.07;;
4748;SDS011;2388;53.582;9.962;2022-12-07T16:19:06;1.33;;;1.07;;
4748;SDS011;2388;53.582;9.962;2022-12-07T16:21:33;2.90;;;1.37;;
4748;SDS011;2388;53.582;9.962;2022-12-07T16:24:00;2.90;;;1.40;;
4748;SDS011;2388;53.582;9.962;2022-12-07T16:26:26;7.00;;;2.07;;
4748;SDS011;2388;53.582;9.962;2022-12-07T16:28:52;3.27;;;1.63;;
4748;SDS011;2388;53.582;9.962;2022-12-07T16:31:19;4.40;;;1.50;;
4748;SDS011;2388;53.582;9.962;2022-12-07T16:33:46;3.70;;;1.87;;
4748;SDS011;2388;53.582;9.962;2022-12-07T16:36:13;6.07;;;1.53;;
4748;SDS011;2388;53.582;9.962;2022-12-07T16:38:40;3.20;;;1.67;;
4748;SDS011;2388;53.582;9.962;2022-12-07T16:41:06;5.90;;;1.40;;
4748;SDS011;2388;53.582;9.962;2022-12-07T16:43:33;5.47;;;1.53;;
4748;SDS011;2388;53.582;9.962;2022-12-07T16:45:59;5.43;;;1.30;;
4748;SDS011;2388;53.582;9.962;2022-12-07T16:48:25;4.30;;;1.80;;
4748;SDS011;2388;53.582;9.962;2022-12-07T16:50:51;2.80;;;1.33;;
4748;SDS011;2388;53.582;9.962;2022-12-07T16:53:18;2.90;;;1.50;;
4748;SDS011;2388;53.582;9.962;2022-12-07T16:55:45;3.50;;;2.27;;
4748;SDS011;2388;53.582;9.962;2022-12-07T16:58:11;4.20;;;1.87;;
4748;SDS011;2388;53.582;9.962;2022-12-07T17:00:38;6.07;;;1.90;;
4748;SDS011;2388;53.582;9.962;2022-12-07T17:03:04;2.50;;;1.30;;
4748;SDS011;2388;53.582;9.962;2022-12-07T17:05:30;1.97;;;1.47;;
4748;SDS011;2388;53.582;9.962;2022-12-07T17:07:56;1.30;;;1.20;;
4748;SDS011;2388;53.582;9.962;2022-12-07T17:10:22;1.50;;;0.90;;
4748;SDS011;2388;53.582;9.962;2022-12-07T17:12:49;3.43;;;1.43;;
4748;SDS011;2388;53.582;9.962;2022-12-07T17:15:14;3.73;;;1.30;;
4748;SDS011;2388;53.582;9.962;2022-12-07T17:17:43;3.40;;;1.70;;
4748;SDS011;2388;53.582;9.962;2022-12-07T17:20:09;3.13;;;1.10;;
4748;SDS011;2388;53.582;9.962;2022-12-07T17:22:35;4.37;;;1.07;;
4748;SDS011;2388;53.582;9.962;2022-12-07T17:25:01;1.70;;;1.10;;
4748;SDS011;2388;53.582;9.962;2022-12-07T17:27:27;4.70;;;1.03;;
4748;SDS011;2388;53.582;9.962;2022-12-07T17:29:52;2.97;;;1.50;;